sensor_id;sensor_type;location;lat;lon;timestamp;temperature;humidity
19256;DHT22;9762;52.490;13.410;2023-01-19T00:01:53;4.40;93.90
19256;DHT22;9762;52.490;13.410;2023-01-19T00:04:19;4.40;93.80
19256;DHT22;9762;52.490;13.410;2023-01-19T00:06:44;4.50;93.80
19256;DHT22;9762;52.490;13.410;2023-01-19T00:09:10;4.50;93.80
19256;DHT22;9762;52.490;13.410;2023-01-19T00:11:35;4.50;93.80
19256;DHT22;9762;52.490;13.410;2023-01-19T00:14:01;4.50;93.60
19256;DHT22;9762;52.490;13.410;2023-01-19T00:16:27;4.40;93.60
19256;DHT22;9762;52.490;13.410;2023-01-19T00:18:52;4.40;93.70
19256;DHT22;9762;52.490;13.410;2023-01-19T00:21:18;4.40;93.80
19256;DHT22;9762;52.490;13.410;2023-01-19T00:23:45;4.40;93.70
19256;DHT22;9762;52.490;13.410;2023-01-19T00:26:17;4.40;93.50
19256;DHT22;9762;52.490;13.410;2023-01-19T00:28:43;4.40;93.50
19256;DHT22;9762;52.490;13.410;2023-01-19T00:31:09;4.40;93.50
19256;DHT22;9762;52.490;13.410;2023-01-19T00:33:34;4.30;93.50
19256;DHT22;9762;52.490;13.410;2023-01-19T00:36:00;4.30;93.50
19256;DHT22;9762;52.490;13.410;2023-01-19T00:38:26;4.20;93.60
19256;DHT22;9762;52.490;13.410;2023-01-19T00:40:51;4.20;93.70
19256;DHT22;9762;52.490;13.410;2023-01-19T00:43:17;4.20;93.80
19256;DHT22;9762;52.490;13.410;2023-01-19T00:45:44;4.20;93.80
19256;DHT22;9762;52.490;13.410;2023-01-19T00:48:10;4.20;93.80
19256;DHT22;9762;52.490;13.410;2023-01-19T00:50:35;4.10;93.90
19256;DHT22;9762;52.490;13.410;2023-01-19T00:53:01;4.10;93.90
19256;DHT22;9762;52.490;13.410;2023-01-19T00:55:28;4.10;93.70
19256;DHT22;9762;52.490;13.410;2023-01-19T00:57:54;4.10;94.10
19256;DHT22;9762;52.490;13.410;2023-01-19T01:00:20;4.10;93.60
19256;DHT22;9762;52.490;13.410;2023-01-19T01:02:46;4.00;93.60
19256;DHT22;9762;52.490;13.410;2023-01-19T01:05:12;4.00;93.80
19256;DHT22;9762;52.490;13.410;2023-01-19T01:07:40;4.00;93.70
19256;DHT22;9762;52.490;13.410;2023-01-19T01:10:08;4.00;93.70
19256;DHT22;9762;52.490;13.410;2023-01-19T01:12:34;3.90;93.50
19256;DHT22;9762;52.490;13.410;2023-01-19T01:15:00;3.90;93.70
19256;DHT22;9762;52.490;13.410;2023-01-19T01:17:26;3.90;93.80
19256;DHT22;9762;52.490;13.410;2023-01-19T01:19:51;3.90;93.80
19256;DHT22;9762;52.490;13.410;2023-01-19T01:22:17;4.00;93.80
19256;DHT22;9762;52.490;13.410;2023-01-19T01:24:43;3.90;93.70
19256;DHT22;9762;52.490;13.410;2023-01-19T01:27:09;4.00;93.70
19256;DHT22;9762;52.490;13.410;2023-01-19T01:29:36;3.90;93.70
19256;DHT22;9762;52.490;13.410;2023-01-19T01:32:01;4.00;93.60
19256;DHT22;9762;52.490;13.410;2023-01-19T01:34:28;4.00;93.60
19256;DHT22;9762;52.490;13.410;2023-01-19T01:36:54;4.00;93.50
19256;DHT22;9762;52.490;13.410;2023-01-19T01:39:20;4.00;93.60
19256;DHT22;9762;52.490;13.410;2023-01-19T01:41:46;3.90;93.50
19256;DHT22;9762;52.490;13.410;2023-01-19T01:47:20;3.90;93.50
19256;DHT22;9762;52.490;13.410;2023-01-19T01:49:50;3.80;93.80
19256;DHT22;9762;52.490;13.410;2023-01-19T01:52:18;3.80;93.90
19256;DHT22;9762;52.490;13.410;2023-01-19T01:54:44;3.80;93.90
19256;DHT22;9762;52.490;13.410;2023-01-19T01:57:11;3.80;93.80
19256;DHT22;9762;52.490;13.410;2023-01-19T01:59:43;3.80;93.80
19256;DHT22;9762;52.490;13.410;2023-01-19T02:02:24;3.80;93.80
19256;DHT22;9762;52.490;13.410;2023-01-19T02:05:14;3.80;93.70
19256;DHT22;9762;52.490;13.410;2023-01-19T02:08:02;3.70;93.60
19256;DHT22;9762;52.490;13.410;2023-01-19T02:10:48;3.70;93.80
19256;DHT22;9762;52.490;13.410;2023-01-19T02:13:35;3.70;93.60
19256;DHT22;9762;52.490;13.410;2023-01-19T02:16:07;3.70;93.70
19256;DHT22;9762;52.490;13.410;2023-01-19T02:18:33;3.70;93.60
19256;DHT22;9762;52.490;13.410;2023-01-19T02:21:13;3.70;93.60
19256;DHT22;9762;52.490;13.410;2023-01-19T02:23:48;3.60;93.70
19256;DHT22;9762;52.490;13.410;2023-01-19T02:26:21;3.60;93.60
19256;DHT22;9762;52.490;13.410;2023-01-19T02:28:54;3.60;94.00
19256;DHT22;9762;52.490;13.410;2023-01-19T02:31:22;3.60;93.60
19256;DHT22;9762;52.490;13.410;2023-01-19T02:33:48;3.50;93.80
19256;DHT22;9762;52.490;13.410;2023-01-19T02:36:16;3.50;93.80
19256;DHT22;9762;52.490;13.410;2023-01-19T02:38:44;3.50;93.90
19256;DHT22;9762;52.490;13.410;2023-01-19T02:41:13;3.50;94.30
19256;DHT22;9762;52.490;13.410;2023-01-19T02:43:40;3.50;93.90
19256;DHT22;9762;52.490;13.410;2023-01-19T02:46:07;3.50;93.90
19256;DHT22;9762;52.490;13.410;2023-01-19T02:48:33;3.50;93.70
19256;DHT22;9762;52.490;13.410;2023-01-19T02:51:15;3.50;93.80
19256;DHT22;9762;52.490;13.410;2023-01-19T02:59:11;3.50;93.70
19256;DHT22;9762;52.490;13.410;2023-01-19T03:04:32;3.50;93.60
19256;DHT22;9762;52.490;13.410;2023-01-19T03:07:41;3.50;93.60
19256;DHT22;9762;52.490;13.410;2023-01-19T03:15:49;3.40;93.70
19256;DHT22;9762;52.490;13.410;2023-01-19T03:18:19;3.30;93.80
19256;DHT22;9762;52.490;13.410;2023-01-19T03:20:46;3.30;93.80
19256;DHT22;9762;52.490;13.410;2023-01-19T03:23:15;3.30;93.80
19256;DHT22;9762;52.490;13.410;2023-01-19T03:25:46;3.30;93.70
19256;DHT22;9762;52.490;13.410;2023-01-19T03:28:13;3.30;93.60
19256;DHT22;9762;52.490;13.410;2023-01-19T03:30:42;3.30;93.60
19256;DHT22;9762;52.490;13.410;2023-01-19T03:33:15;3.20;93.70
19256;DHT22;9762;52.490;13.410;2023-01-19T03:35:45;3.20;93.70
19256;DHT22;9762;52.490;13.410;2023-01-19T03:38:15;3.10;93.80
19256;DHT22;9762;52.490;13.410;2023-01-19T03:40:41;3.10;93.90
19256;DHT22;9762;52.490;13.410;2023-01-19T03:43:08;3.10;93.90
19256;DHT22;9762;52.490;13.410;2023-01-19T03:45:37;3.10;93.90
19256;DHT22;9762;52.490;13.410;2023-01-19T03:48:04;3.10;93.90
19256;DHT22;9762;52.490;13.410;2023-01-19T03:50:31;3.10;93.80
19256;DHT22;9762;52.490;13.410;2023-01-19T03:53:01;3.10;93.80
19256;DHT22;9762;52.490;13.410;2023-01-19T03:55:29;3.00;93.70
19256;DHT22;9762;52.490;13.410;2023-01-19T03:57:55;3.00;93.80
19256;DHT22;9762;52.490;13.410;2023-01-19T04:00:20;3.00;94.00
19256;DHT22;9762;52.490;13.410;2023-01-19T04:02:46;3.00;93.70
19256;DHT22;9762;52.490;13.410;2023-01-19T04:05:11;3.00;93.90
19256;DHT22;9762;52.490;13.410;2023-01-19T04:07:38;3.00;93.80
19256;DHT22;9762;52.490;13.410;2023-01-19T04:10:04;3.00;93.90
19256;DHT22;9762;52.490;13.410;2023-01-19T04:12:30;3.00;93.90
19256;DHT22;9762;52.490;13.410;2023-01-19T04:14:55;3.00;93.80
19256;DHT22;9762;52.490;13.410;2023-01-19T04:17:21;3.00;93.80
19256;DHT22;9762;52.490;13.410;2023-01-19T04:19:46;3.00;93.70
19256;DHT22;9762;52.490;13.410;2023-01-19T04:22:12;3.00;93.80
19256;DHT22;9762;52.490;13.410;2023-01-19T04:24:38;2.90;93.80
19256;DHT22;9762;52.490;13.410;2023-01-19T04:27:03;3.00;93.70
19256;DHT22;9762;52.490;13.410;2023-01-19T04:29:29;2.90;93.70
19256;DHT22;9762;52.490;13.410;2023-01-19T04:31:54;3.00;93.80
19256;DHT22;9762;52.490;13.410;2023-01-19T04:34:20;3.00;93.70
19256;DHT22;9762;52.490;13.410;2023-01-19T04:36:45;3.00;93.60
19256;DHT22;9762;52.490;13.410;2023-01-19T04:39:15;2.90;93.50
19256;DHT22;9762;52.490;13.410;2023-01-19T04:41:40;2.90;93.60
19256;DHT22;9762;52.490;13.410;2023-01-19T04:44:06;2.90;93.60
19256;DHT22;9762;52.490;13.410;2023-01-19T04:46:31;2.90;93.50
19256;DHT22;9762;52.490;13.410;2023-01-19T04:48:57;2.80;93.60
19256;DHT22;9762;52.490;13.410;2023-01-19T04:51:23;2.80;93.60
19256;DHT22;9762;52.490;13.410;2023-01-19T04:53:49;2.70;93.70
19256;DHT22;9762;52.490;13.410;2023-01-19T04:56:14;2.70;93.90
19256;DHT22;9762;52.490;13.410;2023-01-19T04:58:40;2.70;94.00
19256;DHT22;9762;52.490;13.410;2023-01-19T05:01:08;2.60;94.00
19256;DHT22;9762;52.490;13.410;2023-01-19T05:03:34;2.70;94.00
19256;DHT22;9762;52.490;13.410;2023-01-19T05:05:59;2.60;94.00
19256;DHT22;9762;52.490;13.410;2023-01-19T05:08:25;2.60;94.10
19256;DHT22;9762;52.490;13.410;2023-01-19T05:10:50;2.60;94.40
19256;DHT22;9762;52.490;13.410;2023-01-19T05:13:16;2.50;94.00
19256;DHT22;9762;52.490;13.410;2023-01-19T05:15:42;2.50;94.00
19256;DHT22;9762;52.490;13.410;2023-01-19T05:18:07;2.60;94.00
19256;DHT22;9762;52.490;13.410;2023-01-19T05:20:33;2.60;94.00
19256;DHT22;9762;52.490;13.410;2023-01-19T05:22:58;2.60;94.00
19256;DHT22;9762;52.490;13.410;2023-01-19T05:25:24;2.60;93.90
19256;DHT22;9762;52.490;13.410;2023-01-19T05:27:50;2.60;93.80
19256;DHT22;9762;52.490;13.410;2023-01-19T05:30:16;2.60;93.90
19256;DHT22;9762;52.490;13.410;2023-01-19T05:32:42;2.60;93.80
19256;DHT22;9762;52.490;13.410;2023-01-19T05:35:08;2.60;93.80
19256;DHT22;9762;52.490;13.410;2023-01-19T05:37:34;2.60;93.90
19256;DHT22;9762;52.490;13.410;2023-01-19T05:39:59;2.60;93.90
19256;DHT22;9762;52.490;13.410;2023-01-19T05:42:25;2.60;93.90
19256;DHT22;9762;52.490;13.410;2023-01-19T05:44:50;2.60;93.90
19256;DHT22;9762;52.490;13.410;2023-01-19T05:47:17;2.60;93.90
19256;DHT22;9762;52.490;13.410;2023-01-19T05:49:42;2.60;93.80
19256;DHT22;9762;52.490;13.410;2023-01-19T05:52:08;2.60;93.80
19256;DHT22;9762;52.490;13.410;2023-01-19T05:54:33;2.50;93.90
19256;DHT22;9762;52.490;13.410;2023-01-19T05:56:59;2.50;93.90
19256;DHT22;9762;52.490;13.410;2023-01-19T05:59:25;2.50;93.80
19256;DHT22;9762;52.490;13.410;2023-01-19T06:01:52;2.50;93.80
19256;DHT22;9762;52.490;13.410;2023-01-19T06:04:18;2.50;93.60
19256;DHT22;9762;52.490;13.410;2023-01-19T06:06:46;2.40;93.70
19256;DHT22;9762;52.490;13.410;2023-01-19T06:09:12;2.40;93.90
19256;DHT22;9762;52.490;13.410;2023-01-19T06:11:38;2.40;93.90
19256;DHT22;9762;52.490;13.410;2023-01-19T06:14:03;2.40;93.90
19256;DHT22;9762;52.490;13.410;2023-01-19T06:16:29;2.50;93.90
19256;DHT22;9762;52.490;13.410;2023-01-19T06:18:55;2.50;93.80
19256;DHT22;9762;52.490;13.410;2023-01-19T06:21:20;2.50;93.90
19256;DHT22;9762;52.490;13.410;2023-01-19T06:23:46;2.50;94.60
19256;DHT22;9762;52.490;13.410;2023-01-19T06:26:11;2.50;94.20
19256;DHT22;9762;52.490;13.410;2023-01-19T06:28:37;2.50;94.10
19256;DHT22;9762;52.490;13.410;2023-01-19T06:31:03;2.50;94.40
19256;DHT22;9762;52.490;13.410;2023-01-19T06:33:29;2.50;94.10
19256;DHT22;9762;52.490;13.410;2023-01-19T06:35:55;2.60;94.00
19256;DHT22;9762;52.490;13.410;2023-01-19T06:38:22;2.60;93.80
19256;DHT22;9762;52.490;13.410;2023-01-19T06:40:57;2.50;93.70
19256;DHT22;9762;52.490;13.410;2023-01-19T06:43:23;2.50;93.70
19256;DHT22;9762;52.490;13.410;2023-01-19T06:45:50;2.50;93.80
19256;DHT22;9762;52.490;13.410;2023-01-19T06:48:16;2.50;93.70
19256;DHT22;9762;52.490;13.410;2023-01-19T06:50:46;2.60;93.70
19256;DHT22;9762;52.490;13.410;2023-01-19T06:53:12;2.60;93.60
19256;DHT22;9762;52.490;13.410;2023-01-19T06:55:38;2.60;93.60
19256;DHT22;9762;52.490;13.410;2023-01-19T06:58:04;2.60;93.50
19256;DHT22;9762;52.490;13.410;2023-01-19T07:00:30;2.60;93.40
19256;DHT22;9762;52.490;13.410;2023-01-19T07:02:56;2.60;93.40
19256;DHT22;9762;52.490;13.410;2023-01-19T07:05:22;2.60;93.40
19256;DHT22;9762;52.490;13.410;2023-01-19T07:07:54;2.60;93.40
19256;DHT22;9762;52.490;13.410;2023-01-19T07:10:21;2.60;93.50
19256;DHT22;9762;52.490;13.410;2023-01-19T07:12:46;2.60;93.50
19256;DHT22;9762;52.490;13.410;2023-01-19T07:15:17;2.50;93.30
19256;DHT22;9762;52.490;13.410;2023-01-19T07:17:44;2.50;93.30
19256;DHT22;9762;52.490;13.410;2023-01-19T07:20:11;2.50;93.20
19256;DHT22;9762;52.490;13.410;2023-01-19T07:22:40;2.50;93.30
19256;DHT22;9762;52.490;13.410;2023-01-19T07:25:08;2.60;93.40
19256;DHT22;9762;52.490;13.410;2023-01-19T07:27:33;2.50;93.30
19256;DHT22;9762;52.490;13.410;2023-01-19T07:29:59;2.60;93.20
19256;DHT22;9762;52.490;13.410;2023-01-19T07:32:26;2.50;93.20
19256;DHT22;9762;52.490;13.410;2023-01-19T07:34:52;2.50;93.20
19256;DHT22;9762;52.490;13.410;2023-01-19T07:37:18;2.50;93.60
19256;DHT22;9762;52.490;13.410;2023-01-19T07:39:44;2.50;93.80
19256;DHT22;9762;52.490;13.410;2023-01-19T07:42:09;2.50;93.60
19256;DHT22;9762;52.490;13.410;2023-01-19T07:44:35;2.50;93.40
19256;DHT22;9762;52.490;13.410;2023-01-19T07:47:01;2.50;93.50
19256;DHT22;9762;52.490;13.410;2023-01-19T07:49:27;2.50;93.80
19256;DHT22;9762;52.490;13.410;2023-01-19T07:51:53;2.50;93.20
19256;DHT22;9762;52.490;13.410;2023-01-19T07:54:21;2.50;93.20
19256;DHT22;9762;52.490;13.410;2023-01-19T07:56:46;2.50;93.20
19256;DHT22;9762;52.490;13.410;2023-01-19T07:59:12;2.60;93.20
19256;DHT22;9762;52.490;13.410;2023-01-19T08:01:38;2.60;93.10
19256;DHT22;9762;52.490;13.410;2023-01-19T08:04:04;2.50;93.00
19256;DHT22;9762;52.490;13.410;2023-01-19T08:06:34;2.50;93.30
19256;DHT22;9762;52.490;13.410;2023-01-19T08:09:02;2.50;93.40
19256;DHT22;9762;52.490;13.410;2023-01-19T08:11:30;2.50;93.40
19256;DHT22;9762;52.490;13.410;2023-01-19T08:13:56;2.60;93.20
19256;DHT22;9762;52.490;13.410;2023-01-19T08:16:22;2.60;93.20
19256;DHT22;9762;52.490;13.410;2023-01-19T08:18:48;2.70;93.00
19256;DHT22;9762;52.490;13.410;2023-01-19T08:21:13;2.70;93.00
19256;DHT22;9762;52.490;13.410;2023-01-19T08:23:39;2.70;93.00
19256;DHT22;9762;52.490;13.410;2023-01-19T08:26:19;2.70;92.80
19256;DHT22;9762;52.490;13.410;2023-01-19T08:28:45;2.70;92.90
19256;DHT22;9762;52.490;13.410;2023-01-19T08:31:11;2.80;92.90
19256;DHT22;9762;52.490;13.410;2023-01-19T08:33:36;2.80;93.00
19256;DHT22;9762;52.490;13.410;2023-01-19T08:36:02;2.80;93.10
19256;DHT22;9762;52.490;13.410;2023-01-19T08:38:28;2.80;93.20
19256;DHT22;9762;52.490;13.410;2023-01-19T08:40:53;2.80;93.20
19256;DHT22;9762;52.490;13.410;2023-01-19T08:43:19;2.90;93.10
19256;DHT22;9762;52.490;13.410;2023-01-19T08:45:48;2.90;93.00
19256;DHT22;9762;52.490;13.410;2023-01-19T08:48:17;2.90;93.00
19256;DHT22;9762;52.490;13.410;2023-01-19T08:50:45;2.90;93.10
19256;DHT22;9762;52.490;13.410;2023-01-19T08:53:12;2.90;93.10
19256;DHT22;9762;52.490;13.410;2023-01-19T08:55:38;3.00;93.10
19256;DHT22;9762;52.490;13.410;2023-01-19T08:58:04;2.70;92.90
19256;DHT22;9762;52.490;13.410;2023-01-19T09:00:31;3.00;92.90
19256;DHT22;9762;52.490;13.410;2023-01-19T09:02:58;3.00;92.90
19256;DHT22;9762;52.490;13.410;2023-01-19T09:05:23;3.10;92.90
19256;DHT22;9762;52.490;13.410;2023-01-19T09:07:49;3.20;92.80
19256;DHT22;9762;52.490;13.410;2023-01-19T09:10:16;3.20;92.70
19256;DHT22;9762;52.490;13.410;2023-01-19T09:12:42;3.20;92.70
19256;DHT22;9762;52.490;13.410;2023-01-19T09:15:11;3.20;92.50
19256;DHT22;9762;52.490;13.410;2023-01-19T09:17:39;3.30;92.40
19256;DHT22;9762;52.490;13.410;2023-01-19T09:20:05;3.30;92.80
19256;DHT22;9762;52.490;13.410;2023-01-19T09:22:31;3.30;92.90
19256;DHT22;9762;52.490;13.410;2023-01-19T09:24:57;3.30;93.00
19256;DHT22;9762;52.490;13.410;2023-01-19T09:27:23;3.30;92.90
19256;DHT22;9762;52.490;13.410;2023-01-19T09:29:49;3.30;92.80
19256;DHT22;9762;52.490;13.410;2023-01-19T09:32:19;3.30;92.90
19256;DHT22;9762;52.490;13.410;2023-01-19T09:34:45;3.40;93.00
19256;DHT22;9762;52.490;13.410;2023-01-19T09:37:11;3.40;93.10
19256;DHT22;9762;52.490;13.410;2023-01-19T09:39:36;3.50;93.00
19256;DHT22;9762;52.490;13.410;2023-01-19T09:44:56;3.60;93.00
19256;DHT22;9762;52.490;13.410;2023-01-19T09:47:27;3.60;92.80
19256;DHT22;9762;52.490;13.410;2023-01-19T09:49:57;3.70;92.80
19256;DHT22;9762;52.490;13.410;2023-01-19T09:52:24;3.70;92.90
19256;DHT22;9762;52.490;13.410;2023-01-19T09:54:54;3.80;92.90
19256;DHT22;9762;52.490;13.410;2023-01-19T09:57:22;3.90;92.90
19256;DHT22;9762;52.490;13.410;2023-01-19T09:59:48;3.90;92.80
19256;DHT22;9762;52.490;13.410;2023-01-19T10:18:44;4.30;92.70
19256;DHT22;9762;52.490;13.410;2023-01-19T10:21:27;4.30;92.60
19256;DHT22;9762;52.490;13.410;2023-01-19T10:24:04;4.30;92.60
19256;DHT22;9762;52.490;13.410;2023-01-19T10:26:33;4.30;92.70
19256;DHT22;9762;52.490;13.410;2023-01-19T10:29:05;4.40;92.60
19256;DHT22;9762;52.490;13.410;2023-01-19T10:31:33;4.50;92.50
19256;DHT22;9762;52.490;13.410;2023-01-19T10:34:01;4.50;92.60
19256;DHT22;9762;52.490;13.410;2023-01-19T10:36:38;4.60;92.50
19256;DHT22;9762;52.490;13.410;2023-01-19T10:39:05;4.60;92.40
19256;DHT22;9762;52.490;13.410;2023-01-19T10:41:42;4.70;92.20
19256;DHT22;9762;52.490;13.410;2023-01-19T10:44:09;4.70;92.10
19256;DHT22;9762;52.490;13.410;2023-01-19T10:46:47;4.80;92.30
19256;DHT22;9762;52.490;13.410;2023-01-19T10:49:37;4.80;92.10
19256;DHT22;9762;52.490;13.410;2023-01-19T10:52:05;4.90;91.90
19256;DHT22;9762;52.490;13.410;2023-01-19T10:54:33;4.90;91.70
19256;DHT22;9762;52.490;13.410;2023-01-19T10:57:03;5.00;91.70
19256;DHT22;9762;52.490;13.410;2023-01-19T11:02:22;5.10;91.90
19256;DHT22;9762;52.490;13.410;2023-01-19T11:05:01;5.20;91.70
19256;DHT22;9762;52.490;13.410;2023-01-19T11:07:37;5.20;91.60
19256;DHT22;9762;52.490;13.410;2023-01-19T11:15:40;5.40;91.60
19256;DHT22;9762;52.490;13.410;2023-01-19T11:18:06;5.40;91.50
19256;DHT22;9762;52.490;13.410;2023-01-19T11:20:46;5.40;91.60
19256;DHT22;9762;52.490;13.410;2023-01-19T11:25:52;5.50;91.40
19256;DHT22;9762;52.490;13.410;2023-01-19T11:33:31;5.70;91.10
19256;DHT22;9762;52.490;13.410;2023-01-19T11:36:08;5.80;91.00
19256;DHT22;9762;52.490;13.410;2023-01-19T11:38:43;5.80;91.00
19256;DHT22;9762;52.490;13.410;2023-01-19T11:43:49;5.90;92.00
19256;DHT22;9762;52.490;13.410;2023-01-19T11:46:16;6.00;91.70
19256;DHT22;9762;52.490;13.410;2023-01-19T11:48:53;6.00;91.20
19256;DHT22;9762;52.490;13.410;2023-01-19T11:51:29;6.10;91.10
19256;DHT22;9762;52.490;13.410;2023-01-19T11:54:01;6.10;90.90
19256;DHT22;9762;52.490;13.410;2023-01-19T11:56:28;6.10;90.80
19256;DHT22;9762;52.490;13.410;2023-01-19T11:58:54;6.10;90.90
19256;DHT22;9762;52.490;13.410;2023-01-19T12:01:24;6.20;90.80
19256;DHT22;9762;52.490;13.410;2023-01-19T12:03:59;6.20;90.70
19256;DHT22;9762;52.490;13.410;2023-01-19T12:06:36;6.30;90.60
19256;DHT22;9762;52.490;13.410;2023-01-19T12:09:16;6.30;90.70
19256;DHT22;9762;52.490;13.410;2023-01-19T12:11:47;6.40;90.70
19256;DHT22;9762;52.490;13.410;2023-01-19T12:14:27;6.50;90.70
19256;DHT22;9762;52.490;13.410;2023-01-19T12:16:58;6.50;90.80
19256;DHT22;9762;52.490;13.410;2023-01-19T12:19:34;6.60;90.40
19256;DHT22;9762;52.490;13.410;2023-01-19T12:22:02;6.60;90.40
19256;DHT22;9762;52.490;13.410;2023-01-19T12:24:34;6.60;90.40
19256;DHT22;9762;52.490;13.410;2023-01-19T12:27:09;6.70;90.40
19256;DHT22;9762;52.490;13.410;2023-01-19T12:29:39;6.60;90.70
19256;DHT22;9762;52.490;13.410;2023-01-19T12:34:47;6.70;90.60
19256;DHT22;9762;52.490;13.410;2023-01-19T12:37:40;6.80;90.40
19256;DHT22;9762;52.490;13.410;2023-01-19T12:40:27;6.80;90.40
19256;DHT22;9762;52.490;13.410;2023-01-19T12:43:03;6.80;90.40
19256;DHT22;9762;52.490;13.410;2023-01-19T12:45:35;6.90;90.30
19256;DHT22;9762;52.490;13.410;2023-01-19T12:48:03;6.90;90.30
19256;DHT22;9762;52.490;13.410;2023-01-19T12:50:34;6.80;90.20
19256;DHT22;9762;52.490;13.410;2023-01-19T12:53:02;6.80;90.30
19256;DHT22;9762;52.490;13.410;2023-01-19T12:55:36;6.90;90.50
19256;DHT22;9762;52.490;13.410;2023-01-19T12:58:14;6.90;90.50
19256;DHT22;9762;52.490;13.410;2023-01-19T13:00:44;7.00;90.50
19256;DHT22;9762;52.490;13.410;2023-01-19T13:10:52;7.00;90.30
19256;DHT22;9762;52.490;13.410;2023-01-19T13:13:28;7.00;90.30
19256;DHT22;9762;52.490;13.410;2023-01-19T13:15:55;7.00;90.30
19256;DHT22;9762;52.490;13.410;2023-01-19T13:18:30;7.00;90.10
19256;DHT22;9762;52.490;13.410;2023-01-19T13:21:04;6.90;90.10
19256;DHT22;9762;52.490;13.410;2023-01-19T13:26:19;6.90;90.40
19256;DHT22;9762;52.490;13.410;2023-01-19T13:28:55;6.90;90.40
19256;DHT22;9762;52.490;13.410;2023-01-19T13:31:23;6.90;90.40
19256;DHT22;9762;52.490;13.410;2023-01-19T13:33:52;6.80;90.60
19256;DHT22;9762;52.490;13.410;2023-01-19T13:36:38;6.90;90.70
19256;DHT22;9762;52.490;13.410;2023-01-19T13:39:35;6.90;90.60
19256;DHT22;9762;52.490;13.410;2023-01-19T13:42:04;7.00;90.60
19256;DHT22;9762;52.490;13.410;2023-01-19T13:44:40;7.00;90.60
19256;DHT22;9762;52.490;13.410;2023-01-19T13:47:12;7.10;90.50
19256;DHT22;9762;52.490;13.410;2023-01-19T13:49:43;7.10;90.40
19256;DHT22;9762;52.490;13.410;2023-01-19T13:52:20;7.00;90.30
19256;DHT22;9762;52.490;13.410;2023-01-19T13:54:50;7.10;90.40
19256;DHT22;9762;52.490;13.410;2023-01-19T13:57:40;7.00;90.30
19256;DHT22;9762;52.490;13.410;2023-01-19T14:02:36;6.90;90.40
19256;DHT22;9762;52.490;13.410;2023-01-19T14:10:27;6.70;90.80
19256;DHT22;9762;52.490;13.410;2023-01-19T14:13:21;6.70;90.80
19256;DHT22;9762;52.490;13.410;2023-01-19T14:15:48;6.70;90.90
19256;DHT22;9762;52.490;13.410;2023-01-19T14:21:01;6.70;90.80
19256;DHT22;9762;52.490;13.410;2023-01-19T14:37:02;6.70;90.90
19256;DHT22;9762;52.490;13.410;2023-01-19T14:39:34;6.60;91.00
19256;DHT22;9762;52.490;13.410;2023-01-19T14:42:03;6.60;90.90
19256;DHT22;9762;52.490;13.410;2023-01-19T14:44:39;6.50;91.00
19256;DHT22;9762;52.490;13.410;2023-01-19T14:47:15;6.50;91.10
19256;DHT22;9762;52.490;13.410;2023-01-19T14:49:46;6.50;91.20
19256;DHT22;9762;52.490;13.410;2023-01-19T14:52:27;6.40;91.20
19256;DHT22;9762;52.490;13.410;2023-01-19T14:54:56;6.40;91.20
19256;DHT22;9762;52.490;13.410;2023-01-19T14:57:23;6.30;91.20
19256;DHT22;9762;52.490;13.410;2023-01-19T14:59:49;6.30;91.30
19256;DHT22;9762;52.490;13.410;2023-01-19T15:02:17;6.20;91.40
19256;DHT22;9762;52.490;13.410;2023-01-19T15:04:45;6.20;91.40
19256;DHT22;9762;52.490;13.410;2023-01-19T15:07:18;6.20;91.40
19256;DHT22;9762;52.490;13.410;2023-01-19T15:09:45;6.20;91.50
19256;DHT22;9762;52.490;13.410;2023-01-19T15:12:13;6.20;91.50
19256;DHT22;9762;52.490;13.410;2023-01-19T15:14:40;6.20;91.50
19256;DHT22;9762;52.490;13.410;2023-01-19T15:17:07;6.10;91.50
19256;DHT22;9762;52.490;13.410;2023-01-19T15:19:34;6.20;91.70
19256;DHT22;9762;52.490;13.410;2023-01-19T15:22:00;6.20;91.60
19256;DHT22;9762;52.490;13.410;2023-01-19T15:24:26;6.20;91.70
19256;DHT22;9762;52.490;13.410;2023-01-19T15:26:51;6.20;91.70
19256;DHT22;9762;52.490;13.410;2023-01-19T15:29:23;6.10;91.80
19256;DHT22;9762;52.490;13.410;2023-01-19T15:31:50;6.10;91.80
19256;DHT22;9762;52.490;13.410;2023-01-19T15:34:16;6.10;91.80
19256;DHT22;9762;52.490;13.410;2023-01-19T15:36:42;6.10;91.80
19256;DHT22;9762;52.490;13.410;2023-01-19T15:39:08;6.10;91.80
19256;DHT22;9762;52.490;13.410;2023-01-19T15:41:39;6.10;91.90
19256;DHT22;9762;52.490;13.410;2023-01-19T15:44:05;6.20;91.90
19256;DHT22;9762;52.490;13.410;2023-01-19T15:46:31;6.10;91.90
19256;DHT22;9762;52.490;13.410;2023-01-19T15:48:57;6.20;91.90
19256;DHT22;9762;52.490;13.410;2023-01-19T15:51:24;6.20;91.90
19256;DHT22;9762;52.490;13.410;2023-01-19T15:53:51;6.20;91.90
19256;DHT22;9762;52.490;13.410;2023-01-19T15:56:19;6.30;91.90
19256;DHT22;9762;52.490;13.410;2023-01-19T15:58:46;6.30;91.80
19256;DHT22;9762;52.490;13.410;2023-01-19T16:01:14;6.30;91.80
19256;DHT22;9762;52.490;13.410;2023-01-19T16:03:40;6.30;91.90
19256;DHT22;9762;52.490;13.410;2023-01-19T16:06:06;6.30;91.80
19256;DHT22;9762;52.490;13.410;2023-01-19T16:08:32;6.30;91.80
19256;DHT22;9762;52.490;13.410;2023-01-19T16:11:03;6.30;91.80
19256;DHT22;9762;52.490;13.410;2023-01-19T16:13:29;6.30;91.80
19256;DHT22;9762;52.490;13.410;2023-01-19T16:15:55;6.30;91.80
19256;DHT22;9762;52.490;13.410;2023-01-19T16:18:21;6.30;91.80
19256;DHT22;9762;52.490;13.410;2023-01-19T16:20:46;6.40;91.90
19256;DHT22;9762;52.490;13.410;2023-01-19T16:23:12;6.30;91.70
19256;DHT22;9762;52.490;13.410;2023-01-19T16:25:37;6.40;91.70
19256;DHT22;9762;52.490;13.410;2023-01-19T16:28:03;6.30;91.60
19256;DHT22;9762;52.490;13.410;2023-01-19T16:30:29;6.30;91.60
19256;DHT22;9762;52.490;13.410;2023-01-19T16:32:54;6.50;91.70
19256;DHT22;9762;52.490;13.410;2023-01-19T16:35:20;6.30;92.00
19256;DHT22;9762;52.490;13.410;2023-01-19T16:37:49;6.30;92.00
19256;DHT22;9762;52.490;13.410;2023-01-19T16:40:15;6.30;91.70
19256;DHT22;9762;52.490;13.410;2023-01-19T16:42:41;6.20;91.70
19256;DHT22;9762;52.490;13.410;2023-01-19T16:45:07;6.20;91.80
19256;DHT22;9762;52.490;13.410;2023-01-19T16:47:33;6.20;91.90
19256;DHT22;9762;52.490;13.410;2023-01-19T16:49:58;6.20;91.90
19256;DHT22;9762;52.490;13.410;2023-01-19T16:52:24;6.10;92.00
19256;DHT22;9762;52.490;13.410;2023-01-19T16:54:50;6.10;92.10
19256;DHT22;9762;52.490;13.410;2023-01-19T16:57:19;6.10;92.10
19256;DHT22;9762;52.490;13.410;2023-01-19T16:59:44;6.10;92.10
19256;DHT22;9762;52.490;13.410;2023-01-19T17:02:10;6.10;92.10
19256;DHT22;9762;52.490;13.410;2023-01-19T17:04:36;6.10;92.30
19256;DHT22;9762;52.490;13.410;2023-01-19T17:07:01;6.10;92.30
19256;DHT22;9762;52.490;13.410;2023-01-19T17:09:27;6.10;92.30
19256;DHT22;9762;52.490;13.410;2023-01-19T17:11:53;6.10;92.30
19256;DHT22;9762;52.490;13.410;2023-01-19T17:14:19;6.00;92.40
19256;DHT22;9762;52.490;13.410;2023-01-19T17:16:45;6.10;92.40
19256;DHT22;9762;52.490;13.410;2023-01-19T17:19:16;6.10;92.40
19256;DHT22;9762;52.490;13.410;2023-01-19T17:21:44;6.10;92.50
19256;DHT22;9762;52.490;13.410;2023-01-19T17:24:10;6.10;92.40
19256;DHT22;9762;52.490;13.410;2023-01-19T17:26:36;6.10;92.50